createdAt,value
2022-09-01T00:00:49.415Z,20.78
2022-09-01T00:01:53.279Z,20.54
2022-09-01T00:02:56.242Z,20.79
2022-09-01T00:04:03.284Z,20.73
2022-09-01T00:05:07.651Z,20.82
2022-09-01T00:06:11.820Z,20.84
2022-09-01T00:07:14.805Z,20.84
2022-09-01T00:08:18.708Z,20.82
2022-09-01T00:09:22.154Z,20.56
2022-09-01T00:10:24.032Z,20.81
2022-09-01T00:11:27.737Z,20.81
2022-09-01T00:12:30.614Z,20.84
2022-09-01T00:13:34.088Z,20.84
2022-09-01T00:14:41.531Z,20.88
2022-09-01T00:15:43.643Z,20.84
2022-09-01T00:16:45.416Z,20.70
2022-09-01T00:17:49.687Z,20.60
2022-09-01T00:18:53.740Z,20.72
2022-09-01T00:19:55.568Z,20.68
2022-09-01T00:20:59.385Z,20.59
2022-09-01T00:22:01.925Z,20.55
2022-09-01T00:23:03.698Z,20.60
2022-09-01T00:24:06.214Z,20.62
2022-09-01T00:25:08.936Z,20.61
2022-09-01T00:26:10.741Z,20.61
2022-09-01T00:27:12.929Z,20.50
2022-09-01T00:28:14.757Z,20.62
2022-09-01T00:29:16.553Z,20.61
2022-09-01T00:30:19.121Z,20.55
2022-09-01T00:31:21.902Z,20.60
2022-09-01T00:32:23.697Z,20.61
2022-09-01T00:33:25.426Z,20.66
2022-09-01T00:34:27.171Z,20.60
2022-09-01T00:35:28.995Z,20.41
2022-09-01T00:36:30.877Z,20.27
2022-09-01T00:37:32.622Z,20.11
2022-09-01T00:38:34.815Z,20.08
2022-09-01T00:39:36.628Z,20.13
2022-09-01T00:40:38.564Z,20.27
2022-09-01T00:41:45.045Z,20.30
2022-09-01T00:42:49.052Z,20.24
2022-09-01T00:43:53.918Z,20.35
2022-09-01T00:44:55.637Z,20.36
2022-09-01T00:45:57.965Z,20.33
2022-09-01T00:47:02.388Z,20.34
2022-09-01T00:48:05.985Z,20.28
2022-09-01T00:49:13.430Z,20.04
2022-09-01T00:50:17.796Z,20.26
2022-09-01T00:51:19.942Z,20.33
2022-09-01T00:52:35.409Z,20.32
2022-09-01T00:53:41.631Z,20.36
2022-09-01T00:54:50.720Z,20.34
2022-09-01T00:55:52.466Z,20.22
2022-09-01T00:56:57.771Z,20.19
2022-09-01T00:58:03.496Z,19.95
2022-09-01T00:59:07.842Z,19.93
2022-09-01T01:00:12.814Z,19.98
2022-09-01T01:01:14.779Z,20.04
2022-09-01T01:02:16.942Z,20.14
2022-09-01T01:03:19.001Z,20.17
2022-09-01T01:04:20.860Z,20.19
2022-09-01T01:05:33.375Z,20.19
2022-09-01T01:06:35.132Z,20.12
2022-09-01T01:07:39.239Z,20.20
2022-09-01T01:08:49.462Z,20.19
2022-09-01T01:09:51.896Z,20.18
2022-09-01T01:10:53.661Z,20.18
2022-09-01T01:11:59.559Z,20.20
2022-09-01T01:13:03.122Z,20.10
2022-09-01T01:14:15.641Z,20.18
2022-09-01T01:15:18.414Z,20.18
2022-09-01T01:16:21.162Z,20.15
2022-09-01T01:17:23.497Z,20.19
2022-09-01T01:18:25.511Z,20.20
2022-09-01T01:20:02.607Z,20.21
2022-09-01T01:21:32.720Z,20.19
2022-09-01T01:23:03.126Z,20.21
2022-09-01T01:24:18.571Z,20.18
2022-09-01T01:25:22.520Z,20.18
2022-09-01T01:26:24.252Z,20.20
2022-09-01T01:27:31.801Z,20.22
2022-09-01T01:28:37.283Z,20.24
2022-09-01T01:29:40.064Z,20.24
2022-09-01T01:30:48.991Z,20.24
2022-09-01T01:31:54.079Z,20.23
2022-09-01T01:32:57.966Z,20.19
2022-09-01T01:34:00.920Z,20.17
2022-09-01T01:35:06.018Z,20.29
2022-09-01T01:36:19.421Z,20.24
2022-09-01T01:37:25.190Z,20.33
2022-09-01T01:38:28.116Z,20.33
2022-09-01T01:39:29.856Z,20.35
2022-09-01T01:40:31.764Z,20.36
2022-09-01T01:41:35.630Z,20.24
2022-09-01T01:42:38.062Z,20.34
2022-09-01T01:43:40.506Z,20.34
2022-09-01T01:44:42.691Z,20.32
2022-09-01T01:45:44.505Z,20.33
2022-09-01T01:46:50.760Z,20.30
2022-09-01T01:47:53.809Z,20.24
2022-09-01T01:48:55.631Z,20.30
2022-09-01T01:49:57.748Z,20.29
2022-09-01T01:50:59.813Z,20.28
2022-09-01T01:52:01.780Z,20.27
2022-09-01T01:53:11.107Z,20.06
2022-09-01T01:54:15.940Z,20.15
2022-09-01T01:55:19.497Z,20.18
2022-09-01T01:56:26.551Z,20.12
2022-09-01T01:57:30.559Z,20.01
2022-09-01T01:58:35.009Z,19.97
2022-09-01T01:59:38.758Z,20.08
2022-09-01T02:00:42.996Z,20.06
2022-09-01T02:01:51.486Z,20.07
2022-09-01T02:02:54.468Z,19.95
2022-09-01T02:03:59.198Z,19.89
2022-09-01T02:05:02.201Z,19.98
2022-09-01T02:06:08.362Z,19.90
2022-09-01T02:07:13.034Z,20.01
2022-09-01T02:08:16.234Z,19.94
2022-09-01T02:09:21.371Z,19.80
2022-09-01T02:10:25.817Z,19.59
2022-09-01T02:11:28.282Z,19.57
2022-09-01T02:12:31.651Z,19.39
2022-09-01T02:13:34.242Z,19.25
2022-09-01T02:14:35.958Z,19.08
2022-09-01T02:15:44.356Z,19.09
2022-09-01T02:16:46.220Z,19.06
2022-09-01T02:17:49.002Z,19.09
2022-09-01T02:18:51.344Z,19.16
2022-09-01T02:19:57.605Z,19.08
2022-09-01T02:20:59.698Z,19.02
2022-09-01T02:22:01.434Z,18.99
2022-09-01T02:23:09.448Z,18.89
2022-09-01T02:24:12.074Z,18.89
2022-09-01T02:25:16.746Z,18.92
2022-09-01T02:26:19.279Z,18.91
2022-09-01T02:27:27.028Z,18.89
2022-09-01T02:28:32.180Z,18.69
2022-09-01T02:29:37.159Z,18.81
2022-09-01T02:30:45.769Z,18.83
2022-09-01T02:31:53.148Z,18.89
2022-09-01T02:32:54.858Z,18.94
2022-09-01T02:33:56.632Z,18.99
2022-09-01T02:35:01.527Z,19.04
2022-09-01T02:36:08.551Z,19.08
2022-09-01T02:37:10.255Z,19.07
2022-09-01T02:38:14.127Z,19.09
2022-09-01T02:39:21.472Z,19.11
2022-09-01T02:40:23.331Z,19.20
2022-09-01T02:41:27.308Z,19.24
2022-09-01T02:42:30.327Z,19.25
2022-09-01T02:43:32.230Z,19.18
2022-09-01T02:44:36.278Z,19.14
2022-09-01T02:45:42.871Z,19.09
2022-09-01T02:46:46.360Z,19.13
2022-09-01T02:47:48.674Z,19.19
2022-09-01T02:48:51.627Z,19.13
2022-09-01T02:49:53.649Z,19.22
2022-09-01T02:50:57.428Z,19.23
2022-09-01T02:52:01.863Z,19.29
2022-09-01T02:53:06.931Z,19.32
2022-09-01T02:54:09.230Z,19.35
2022-09-01T02:55:11.931Z,19.29
2022-09-01T02:56:16.581Z,19.30
2022-09-01T02:57:18.423Z,19.43
2022-09-01T02:58:20.447Z,19.42
2022-09-01T02:59:28.994Z,19.46
2022-09-01T03:00:33.578Z,19.46
2022-09-01T03:01:35.557Z,19.47
2022-09-01T03:02:37.323Z,19.21
2022-09-01T03:03:39.090Z,19.44
2022-09-01T03:04:40.897Z,19.45
2022-09-01T03:05:43.229Z,19.45
2022-09-01T03:06:45.252Z,19.46
2022-09-01T03:07:47.071Z,19.45
2022-09-01T03:08:48.876Z,19.46
2022-09-01T03:09:50.583Z,19.46
2022-09-01T03:10:54.084Z,19.44
2022-09-01T03:11:56.193Z,19.37
2022-09-01T03:13:00.575Z,19.46
2022-09-01T03:14:03.295Z,19.47
2022-09-01T03:15:06.580Z,19.50
2022-09-01T03:16:11.292Z,19.52
2022-09-01T03:17:14.231Z,19.54
2022-09-01T03:18:16.368Z,19.57
2022-09-01T03:19:19.242Z,19.55
2022-09-01T03:20:21.869Z,19.53
2022-09-01T03:21:24.003Z,19.50
2022-09-01T03:22:27.169Z,19.32
2022-09-01T03:23:31.487Z,19.50
2022-09-01T03:24:33.163Z,19.50
2022-09-01T03:25:36.929Z,19.51
2022-09-01T03:26:40.602Z,19.48
2022-09-01T03:27:42.362Z,19.55
2022-09-01T03:28:44.088Z,19.56
2022-09-01T03:29:45.828Z,19.59
2022-09-01T03:30:51.127Z,19.60
2022-09-01T03:31:52.981Z,19.59
2022-09-01T03:32:54.833Z,19.58
2022-09-01T03:33:57.158Z,19.60
2022-09-01T03:34:59.916Z,19.57
2022-09-01T03:36:01.647Z,19.62
2022-09-01T03:37:07.614Z,19.60
2022-09-01T03:38:09.914Z,19.58
2022-09-01T03:39:16.511Z,19.67
2022-09-01T03:40:19.550Z,19.66
2022-09-01T03:41:25.255Z,19.66
2022-09-01T03:42:29.909Z,19.66
2022-09-01T03:43:35.616Z,19.59
2022-09-01T03:44:40.469Z,19.65
2022-09-01T03:45:43.059Z,19.62
2022-09-01T03:46:44.995Z,19.59
2022-09-01T03:47:47.285Z,19.50
2022-09-01T03:48:56.005Z,19.64
2022-09-01T03:50:00.043Z,19.65
2022-09-01T03:51:02.850Z,19.64
2022-09-01T03:52:05.979Z,19.60
2022-09-01T03:53:08.518Z,19.55
2022-09-01T03:54:11.380Z,19.65
2022-09-01T03:55:13.249Z,19.70
2022-09-01T03:56:15.392Z,19.72
2022-09-01T03:57:17.133Z,19.73
2022-09-01T03:58:19.777Z,19.71
2022-09-01T03:59:23.163Z,19.73
2022-09-01T04:00:29.998Z,19.75
2022-09-01T04:01:33.818Z,19.75
2022-09-01T04:02:35.755Z,19.73
2022-09-01T04:03:39.845Z,19.74
2022-09-01T04:04:41.819Z,19.68
2022-09-01T04:05:44.858Z,19.73
2022-09-01T04:06:47.175Z,19.74
2022-09-01T04:07:50.505Z,19.75
2022-09-01T04:08:57.436Z,19.73
2022-09-01T04:09:59.183Z,19.75
2022-09-01T04:11:11.977Z,19.71
2022-09-01T04:12:16.150Z,19.71
2022-09-01T04:13:35.535Z,19.65
2022-09-01T04:14:37.271Z,19.78
2022-09-01T04:15:39.129Z,19.83
2022-09-01T04:17:01.784Z,19.87
2022-09-01T04:18:10.317Z,19.93
2022-09-01T04:19:20.739Z,20.00
2022-09-01T04:20:23.645Z,20.03
2022-09-01T04:21:25.361Z,20.14
2022-09-01T04:22:30.251Z,20.17
2022-09-01T04:23:35.009Z,20.22
2022-09-01T04:24:36.703Z,20.27
2022-09-01T04:25:39.215Z,20.34
2022-09-01T04:26:42.457Z,20.40
2022-09-01T04:27:47.754Z,20.45
2022-09-01T04:28:51.048Z,20.60
2022-09-01T04:29:55.808Z,20.70
2022-09-01T04:30:59.684Z,20.76
2022-09-01T04:32:09.896Z,20.89
2022-09-01T04:33:12.001Z,20.98
2022-09-01T04:34:14.162Z,20.99
2022-09-01T04:35:17.269Z,21.17
2022-09-01T04:36:30.827Z,21.27
2022-09-01T04:37:35.652Z,21.37
2022-09-01T04:38:37.494Z,21.50
2022-09-01T04:39:40.413Z,21.59
2022-09-01T04:40:42.875Z,21.64
2022-09-01T04:41:50.496Z,21.85
2022-09-01T04:42:52.202Z,22.02
2022-09-01T04:43:57.118Z,22.13
2022-09-01T04:45:02.165Z,22.23
2022-09-01T04:46:14.572Z,22.33
2022-09-01T04:47:18.779Z,22.51
2022-09-01T04:48:22.362Z,22.62
2022-09-01T04:49:26.550Z,22.70
2022-09-01T04:50:30.912Z,22.74
2022-09-01T04:51:33.392Z,22.78
2022-09-01T04:52:35.961Z,22.83
2022-09-01T04:53:38.368Z,22.73
2022-09-01T04:54:40.709Z,22.75
2022-09-01T04:55:44.022Z,22.73
2022-09-01T04:56:50.947Z,22.83
2022-09-01T04:57:53.320Z,22.84
2022-09-01T04:58:56.021Z,22.95
2022-09-01T04:59:58.719Z,23.04
2022-09-01T05:01:03.818Z,23.14
2022-09-01T05:02:09.595Z,23.25
2022-09-01T05:03:11.932Z,23.41
2022-09-01T05:04:18.062Z,23.54
2022-09-01T05:05:23.899Z,23.68
2022-09-01T05:06:25.624Z,23.80
2022-09-01T05:07:27.882Z,23.97
2022-09-01T05:08:35.503Z,24.13
2022-09-01T05:09:38.553Z,24.19
2022-09-01T05:10:43.391Z,24.26
2022-09-01T05:11:45.642Z,24.34
2022-09-01T05:12:48.479Z,24.51
2022-09-01T05:13:51.257Z,24.70
2022-09-01T05:14:54.031Z,24.88
2022-09-01T05:16:06.203Z,25.14
2022-09-01T05:17:10.419Z,25.26
2022-09-01T05:18:23.441Z,25.62
2022-09-01T05:19:29.042Z,25.86
2022-09-01T05:20:32.160Z,26.09
2022-09-01T05:21:33.957Z,26.29
2022-09-01T05:22:35.806Z,26.45
2022-09-01T05:23:40.721Z,26.59
2022-09-01T05:24:42.635Z,26.77
2022-09-01T05:25:44.672Z,26.81
2022-09-01T05:26:50.979Z,26.76
2022-09-01T05:27:52.824Z,26.82
2022-09-01T05:29:04.340Z,26.95
2022-09-01T05:30:08.706Z,27.01
2022-09-01T05:31:10.767Z,27.13
2022-09-01T05:32:12.817Z,27.23
2022-09-01T05:33:21.137Z,27.48
2022-09-01T05:34:27.524Z,27.58
2022-09-01T05:35:32.715Z,27.59
2022-09-01T05:36:35.708Z,27.75
2022-09-01T05:37:42.108Z,27.96
2022-09-01T05:38:44.906Z,28.01
2022-09-01T05:39:46.685Z,27.99
2022-09-01T05:40:58.091Z,27.95
2022-09-01T05:42:01.722Z,27.94
2022-09-01T05:43:03.469Z,28.08
2022-09-01T05:44:08.191Z,28.25
2022-09-01T05:45:12.019Z,28.35
2022-09-01T05:46:20.802Z,28.51
2022-09-01T05:47:23.242Z,28.70
2022-09-01T05:48:25.436Z,28.88
2022-09-01T05:49:28.775Z,28.94
2022-09-01T05:50:31.581Z,28.88
2022-09-01T05:51:44.344Z,28.90
2022-09-01T05:52:48.068Z,29.01
2022-09-01T05:53:55.960Z,29.16
2022-09-01T05:55:00.257Z,29.28
2022-09-01T05:56:08.035Z,29.42
2022-09-01T05:57:32.717Z,29.60
2022-09-01T05:59:22.457Z,29.90
2022-09-01T05:59:54.253Z,30.11
2022-09-01T06:00:58.617Z,30.33
2022-09-01T06:02:01.158Z,30.53
2022-09-01T06:03:04.848Z,30.62
2022-09-01T06:04:08.425Z,30.66
2022-09-01T06:05:11.139Z,30.96
2022-09-01T06:06:12.878Z,31.20
2022-09-01T06:07:16.597Z,31.31
2022-09-01T06:08:25.340Z,31.32
2022-09-01T06:09:27.133Z,31.24
2022-09-01T06:10:29.809Z,31.37
2022-09-01T06:11:33.125Z,31.50
2022-09-01T06:12:34.907Z,31.51
2022-09-01T06:13:37.394Z,31.50
2022-09-01T06:14:39.109Z,31.61
2022-09-01T06:15:40.800Z,31.72
2022-09-01T06:16:43.770Z,31.81
2022-09-01T06:17:46.523Z,31.88
2022-09-01T06:18:48.260Z,32.01
2022-09-01T06:19:58.226Z,32.13
2022-09-01T06:21:00.055Z,32.25
2022-09-01T06:22:02.736Z,32.42
2022-09-01T06:23:04.430Z,32.64
2022-09-01T06:24:07.215Z,32.75
2022-09-01T06:25:09.660Z,32.89
2022-09-01T06:26:32.260Z,32.95
2022-09-01T06:27:38.866Z,33.04
2022-09-01T06:28:41.492Z,33.18
2022-09-01T06:29:43.243Z,33.30
2022-09-01T06:30:45.803Z,33.39
2022-09-01T06:31:52.051Z,33.47
2022-09-01T06:32:54.609Z,33.45
2022-09-01T06:33:56.778Z,33.52
2022-09-01T06:35:00.615Z,33.54
2022-09-01T06:36:04.149Z,33.62
2022-09-01T06:37:07.125Z,33.71
2022-09-01T06:38:10.093Z,33.81
2022-09-01T06:39:20.040Z,33.99
2022-09-01T06:40:22.453Z,34.10
2022-09-01T06:41:24.218Z,34.22
2022-09-01T06:42:26.321Z,34.22
2022-09-01T06:43:30.593Z,34.36
2022-09-01T06:44:32.823Z,34.45
2022-09-01T06:45:49.980Z,34.65
2022-09-01T06:46:52.541Z,34.80
2022-09-01T06:47:59.423Z,34.78
2022-09-01T06:49:02.121Z,34.80
2022-09-01T06:50:08.702Z,34.74
2022-09-01T06:51:15.784Z,34.91
2022-09-01T06:52:20.960Z,34.99
2022-09-01T06:53:38.954Z,35.04
2022-09-01T06:54:44.069Z,35.22
2022-09-01T06:55:49.343Z,35.28
2022-09-01T06:56:51.437Z,35.38
2022-09-01T06:58:13.989Z,35.50
2022-09-01T06:59:16.005Z,35.41
2022-09-01T07:00:19.162Z,35.49
2022-09-01T07:01:22.426Z,35.65
2022-09-01T07:03:52.989Z,35.86
2022-09-01T07:04:55.066Z,35.95
2022-09-01T07:06:00.896Z,35.95
2022-09-01T07:08:26.392Z,36.34
2022-09-01T07:14:15.321Z,36.44
2022-09-01T07:16:33.360Z,36.68
2022-09-01T07:17:42.370Z,36.78
2022-09-01T07:18:44.855Z,36.93
2022-09-01T07:20:23.215Z,37.00
2022-09-01T07:21:40.915Z,37.05
2022-09-01T07:24:10.486Z,37.00
2022-09-01T07:25:13.393Z,36.94
2022-09-01T07:26:26.886Z,37.03
2022-09-01T07:27:36.258Z,37.03
2022-09-01T07:28:43.195Z,37.03
2022-09-01T07:29:44.936Z,36.95
2022-09-01T07:30:49.224Z,36.89
2022-09-01T07:32:44.058Z,36.90
2022-09-01T07:39:57.369Z,35.74
2022-09-01T07:42:31.191Z,36.51
2022-09-01T07:42:56.830Z,37.43
2022-09-01T07:43:08.352Z,38.10
2022-09-01T07:44:13.128Z,38.09
2022-09-01T07:45:32.675Z,38.15
2022-09-01T07:46:37.967Z,38.28
2022-09-01T07:47:55.636Z,38.26
2022-09-01T07:51:43.530Z,36.84
2022-09-01T07:52:49.658Z,36.70
2022-09-01T07:53:51.456Z,36.80
2022-09-01T07:54:53.183Z,37.07
2022-09-01T07:55:56.558Z,37.15
2022-09-01T07:56:58.371Z,37.15
2022-09-01T07:58:00.049Z,36.47
2022-09-01T07:59:02.376Z,36.15
2022-09-01T08:00:06.654Z,35.74
2022-09-01T08:01:10.002Z,35.70
2022-09-01T08:02:11.761Z,35.75
2022-09-01T08:03:14.674Z,36.14
2022-09-01T08:04:18.657Z,36.37
2022-09-01T08:05:26.464Z,36.56
2022-09-01T08:06:37.991Z,36.82
2022-09-01T08:07:55.878Z,37.03
2022-09-01T08:08:59.852Z,36.82
2022-09-01T08:10:01.746Z,36.50
2022-09-01T08:11:04.839Z,36.35
2022-09-01T08:12:08.595Z,36.44
2022-09-01T08:13:15.223Z,36.07
2022-09-01T08:14:18.369Z,35.75
2022-09-01T08:16:51.882Z,35.78
2022-09-01T08:17:54.079Z,36.02
2022-09-01T08:18:56.610Z,36.17
2022-09-01T08:19:58.752Z,36.34
2022-09-01T08:21:00.614Z,36.49
2022-09-01T08:22:02.816Z,36.70
2022-09-01T08:23:05.471Z,36.75
2022-09-01T08:24:07.206Z,36.89
2022-09-01T08:25:10.052Z,37.00
2022-09-01T08:26:19.521Z,37.12
2022-09-01T08:27:21.260Z,37.11
2022-09-01T08:28:26.746Z,37.12
2022-09-01T08:29:28.711Z,37.14
2022-09-01T08:30:32.719Z,36.60
2022-09-01T08:31:35.871Z,36.63
2022-09-01T08:32:38.228Z,36.85
2022-09-01T08:33:42.019Z,36.98
2022-09-01T08:34:43.768Z,36.98
2022-09-01T08:35:49.155Z,36.82
2022-09-01T08:36:51.749Z,36.65
2022-09-01T08:37:54.264Z,36.67
2022-09-01T08:38:56.049Z,36.59
2022-09-01T08:39:57.879Z,36.56
2022-09-01T08:41:00.561Z,36.43
2022-09-01T08:42:18.945Z,36.51
2022-09-01T08:43:44.896Z,36.39
2022-09-01T08:44:49.433Z,36.60
2022-09-01T08:45:55.253Z,36.23
2022-09-01T08:47:07.758Z,35.47
2022-09-01T08:49:46.180Z,35.56
2022-09-01T08:50:55.609Z,35.64
2022-09-01T08:52:26.327Z,35.82
2022-09-01T08:53:41.014Z,35.62
2022-09-01T08:55:01.551Z,35.76
2022-09-01T08:56:04.592Z,35.73
2022-09-01T08:57:14.070Z,35.77
2022-09-01T08:58:18.236Z,35.97
2022-09-01T08:59:20.735Z,36.18
2022-09-01T09:00:25.263Z,36.08
2022-09-01T09:02:04.951Z,36.04
2022-09-01T09:03:40.420Z,35.71
2022-09-01T09:04:47.692Z,35.96
2022-09-01T09:06:07.972Z,36.19
2022-09-01T09:07:13.684Z,36.20
2022-09-01T09:08:46.021Z,35.43
2022-09-01T09:09:57.633Z,35.13
2022-09-01T09:11:04.700Z,35.57
2022-09-01T09:12:10.050Z,35.92
2022-09-01T09:13:34.122Z,36.36
2022-09-01T09:14:44.973Z,36.38
2022-09-01T09:16:08.513Z,36.48
2022-09-01T09:17:11.552Z,36.71
2022-09-01T09:18:38.856Z,36.45
2022-09-01T09:19:44.596Z,35.37
2022-09-01T09:20:46.350Z,34.99
2022-09-01T09:21:50.444Z,35.26
2022-09-01T09:22:53.837Z,35.53
2022-09-01T09:24:04.927Z,35.74
2022-09-01T09:25:17.452Z,35.96
2022-09-01T09:26:22.291Z,36.18
2022-09-01T09:27:33.713Z,36.11
2022-09-01T09:28:35.481Z,35.91
2022-09-01T09:29:37.160Z,35.96
2022-09-01T09:30:38.969Z,36.24
2022-09-01T09:31:46.279Z,36.56
2022-09-01T09:34:42.455Z,36.30
2022-09-01T09:35:46.698Z,36.50
2022-09-01T09:36:54.626Z,36.72
2022-09-01T09:38:21.781Z,36.87
2022-09-01T09:39:23.582Z,37.10
2022-09-01T09:40:26.865Z,36.99
2022-09-01T09:41:28.677Z,37.10
2022-09-01T09:42:34.907Z,37.27
2022-09-01T09:43:52.104Z,37.35
2022-09-01T09:44:57.683Z,37.22
2022-09-01T09:46:24.613Z,37.18
2022-09-01T09:47:45.451Z,37.46
2022-09-01T09:48:48.346Z,37.42
2022-09-01T09:50:12.803Z,37.20
2022-09-01T09:51:21.174Z,37.24
2022-09-01T09:52:23.279Z,37.19
2022-09-01T09:53:26.703Z,37.33
2022-09-01T09:54:29.653Z,37.39
2022-09-01T09:55:31.393Z,37.40
2022-09-01T09:56:36.099Z,37.19
2022-09-01T09:57:44.664Z,37.45
2022-09-01T09:58:49.365Z,37.51
2022-09-01T10:00:08.061Z,37.47
2022-09-01T10:01:17.784Z,37.44
2022-09-01T10:02:27.401Z,37.14
2022-09-01T10:03:46.015Z,36.98
2022-09-01T10:04:48.611Z,36.98
2022-09-01T10:05:55.600Z,37.07
2022-09-01T10:06:57.353Z,37.21
2022-09-01T10:07:59.275Z,37.40
2022-09-01T10:09:04.777Z,37.28
2022-09-01T10:10:48.689Z,37.30
2022-09-01T10:12:02.179Z,37.46
2022-09-01T10:13:08.246Z,37.37
2022-09-01T10:14:35.489Z,37.38
2022-09-01T10:15:39.101Z,36.56
2022-09-01T10:16:42.910Z,36.02
2022-09-01T10:17:49.425Z,35.85
2022-09-01T10:18:52.519Z,36.39
2022-09-01T10:20:05.337Z,36.50
2022-09-01T10:21:15.322Z,36.69
2022-09-01T10:22:17.061Z,36.59
2022-09-01T10:23:18.924Z,36.68
2022-09-01T10:24:31.334Z,36.70
2022-09-01T10:25:35.583Z,36.57
2022-09-01T10:26:41.047Z,36.55
2022-09-01T10:27:47.909Z,36.62
2022-09-01T10:29:01.031Z,36.50
2022-09-01T10:30:14.182Z,36.65
2022-09-01T10:31:20.879Z,36.48
2022-09-01T10:32:38.284Z,36.29
2022-09-01T10:33:48.728Z,36.00
2022-09-01T10:34:51.722Z,35.75
2022-09-01T10:35:54.556Z,35.56
2022-09-01T10:36:59.031Z,35.21
2022-09-01T10:38:07.821Z,35.50
2022-09-01T10:39:16.329Z,35.78
2022-09-01T10:40:30.991Z,35.46
2022-09-01T10:41:59.912Z,35.38
2022-09-01T10:43:49.093Z,35.67
2022-09-01T10:44:59.056Z,35.86
2022-09-01T10:46:05.702Z,36.32
2022-09-01T10:47:30.259Z,36.55
2022-09-01T10:48:46.293Z,36.64
2022-09-01T10:49:53.757Z,36.65
2022-09-01T10:51:19.335Z,36.60
2022-09-01T10:52:40.909Z,36.69
2022-09-01T10:53:47.658Z,36.90
2022-09-01T10:54:58.043Z,37.21
2022-09-01T10:56:19.255Z,37.12
2022-09-01T10:57:46.531Z,37.00
2022-09-01T11:00:36.823Z,36.61
2022-09-01T11:01:49.073Z,36.31
2022-09-01T11:04:37.904Z,36.23
2022-09-01T11:06:11.434Z,36.10
2022-09-01T11:07:39.008Z,36.33
2022-09-01T11:09:19.656Z,35.98
2022-09-01T11:10:34.569Z,36.17
2022-09-01T11:11:41.677Z,36.25
2022-09-01T11:13:03.620Z,36.23
2022-09-01T11:14:22.170Z,36.10
2022-09-01T11:15:40.302Z,35.97
2022-09-01T11:16:48.035Z,36.23
2022-09-01T11:17:51.132Z,36.38
2022-09-01T11:18:53.468Z,36.09
2022-09-01T11:20:10.131Z,36.33
2022-09-01T11:21:18.295Z,36.38
2022-09-01T11:22:32.865Z,36.33
2022-09-01T11:23:34.709Z,36.46
2022-09-01T11:24:41.541Z,36.35
2022-09-01T11:26:19.075Z,36.05
2022-09-01T11:27:33.046Z,35.89
2022-09-01T11:28:41.806Z,35.92
2022-09-01T11:30:02.961Z,36.03
2022-09-01T11:31:08.517Z,35.94
2022-09-01T11:32:11.448Z,35.82
2022-09-01T11:33:16.789Z,35.76
2022-09-01T11:34:20.614Z,35.65
2022-09-01T11:35:25.661Z,35.36
2022-09-01T11:36:47.370Z,35.10
2022-09-01T11:37:52.118Z,35.09
2022-09-01T11:39:04.716Z,34.95
2022-09-01T11:40:11.175Z,34.94
2022-09-01T11:41:45.135Z,34.65
2022-09-01T11:42:48.305Z,34.81
2022-09-01T11:43:53.707Z,34.86
2022-09-01T11:45:15.503Z,34.72
2022-09-01T11:46:29.308Z,34.71
2022-09-01T11:47:39.000Z,34.69
2022-09-01T11:48:52.066Z,34.61
2022-09-01T11:50:03.787Z,34.63
2022-09-01T11:51:05.889Z,34.60
2022-09-01T11:52:15.410Z,34.39
2022-09-01T11:53:23.112Z,34.40
2022-09-01T11:54:25.495Z,34.42
2022-09-01T11:55:36.399Z,34.30
2022-09-01T11:56:38.167Z,34.37
2022-09-01T11:57:41.390Z,34.43
2022-09-01T11:58:43.856Z,34.42
2022-09-01T11:59:45.953Z,34.23
2022-09-01T12:00:47.682Z,34.07
2022-09-01T12:01:49.913Z,34.29
2022-09-01T12:02:54.456Z,34.45
2022-09-01T12:03:59.034Z,34.32
2022-09-01T12:05:03.279Z,34.36
2022-09-01T12:06:11.018Z,34.10
2022-09-01T12:07:24.590Z,33.87
2022-09-01T12:08:30.704Z,33.79
2022-09-01T12:09:38.990Z,34.04
2022-09-01T12:10:43.524Z,34.17
2022-09-01T12:11:45.318Z,33.90
2022-09-01T12:12:47.771Z,33.25
2022-09-01T12:14:21.036Z,33.18
2022-09-01T12:15:24.665Z,33.28
2022-09-01T12:16:28.202Z,33.36
2022-09-01T12:17:30.318Z,33.36
2022-09-01T12:18:47.574Z,33.40
2022-09-01T12:19:49.447Z,33.47
2022-09-01T12:20:53.631Z,33.55
2022-09-01T12:22:16.985Z,33.25
2022-09-01T12:23:26.071Z,33.36
2022-09-01T12:24:29.162Z,33.35
2022-09-01T12:25:33.904Z,33.32
2022-09-01T12:26:35.907Z,33.24
2022-09-01T12:27:37.663Z,33.35
2022-09-01T12:28:41.691Z,33.53
2022-09-01T12:29:44.427Z,33.61
2022-09-01T12:30:46.315Z,33.64
2022-09-01T12:31:50.607Z,33.64
2022-09-01T12:33:22.930Z,33.78
2022-09-01T12:34:27.857Z,33.69
2022-09-01T12:35:29.599Z,33.56
2022-09-01T12:36:34.957Z,33.58
2022-09-01T12:37:36.952Z,33.20
2022-09-01T12:38:38.696Z,33.06
2022-09-01T12:39:46.094Z,32.88
2022-09-01T12:40:50.277Z,32.84
2022-09-01T12:42:27.601Z,32.87
2022-09-01T12:43:35.368Z,32.91
2022-09-01T12:44:40.203Z,32.80
2022-09-01T12:45:47.954Z,32.67
2022-09-01T12:46:49.674Z,32.52
2022-09-01T12:47:51.687Z,32.50
2022-09-01T12:48:53.426Z,32.41
2022-09-01T12:49:55.734Z,32.46
2022-09-01T12:51:26.520Z,32.46
2022-09-01T12:52:30.746Z,32.65
2022-09-01T12:53:36.573Z,32.72
2022-09-01T12:54:38.998Z,32.87
2022-09-01T12:55:48.091Z,32.79
2022-09-01T12:56:51.422Z,32.81
2022-09-01T12:57:56.141Z,32.79
2022-09-01T12:59:16.038Z,32.66
2022-09-01T13:00:24.197Z,32.74
2022-09-01T13:01:30.937Z,32.85
2022-09-01T13:02:37.004Z,32.85
2022-09-01T13:03:38.806Z,33.05
2022-09-01T13:04:42.143Z,33.10
2022-09-01T13:05:51.978Z,33.13
2022-09-01T13:06:56.595Z,33.19
2022-09-01T13:08:07.618Z,33.06
2022-09-01T13:09:10.233Z,32.97
2022-09-01T13:10:12.113Z,32.92
2022-09-01T13:11:18.443Z,32.99
2022-09-01T13:12:21.870Z,33.07
2022-09-01T13:13:25.716Z,33.20
2022-09-01T13:14:31.330Z,33.32
2022-09-01T13:15:34.512Z,33.40
2022-09-01T13:16:37.367Z,33.26
2022-09-01T13:17:39.478Z,33.22
2022-09-01T13:20:08.298Z,33.35
2022-09-01T13:21:10.314Z,33.30
2022-09-01T13:22:12.066Z,33.30
2022-09-01T13:23:14.342Z,33.28
2022-09-01T13:24:16.080Z,33.27
2022-09-01T13:25:20.447Z,33.21
2022-09-01T13:26:22.244Z,33.22
2022-09-01T13:27:24.166Z,33.20
2022-09-01T13:28:27.025Z,33.25
2022-09-01T13:29:28.796Z,33.29
2022-09-01T13:30:31.390Z,33.30
2022-09-01T13:31:34.430Z,33.46
2022-09-01T13:33:17.350Z,33.56
2022-09-01T13:34:21.907Z,33.63
2022-09-01T13:35:22.978Z,33.56
2022-09-01T13:37:48.302Z,33.53
2022-09-01T13:38:50.622Z,33.60
2022-09-01T13:39:55.567Z,33.54
2022-09-01T13:40:57.309Z,33.44
2022-09-01T13:41:59.078Z,33.44
2022-09-01T13:43:01.104Z,33.49
2022-09-01T13:44:03.016Z,33.54
2022-09-01T13:45:06.580Z,33.57
2022-09-01T13:46:09.661Z,33.59
2022-09-01T13:50:07.133Z,33.66
2022-09-01T13:51:15.983Z,33.69
2022-09-01T13:52:19.348Z,33.71
2022-09-01T13:53:22.389Z,33.73
2022-09-01T13:54:24.087Z,33.73
2022-09-01T13:55:31.992Z,33.64
2022-09-01T13:56:33.711Z,33.56
2022-09-01T13:57:35.683Z,33.53
2022-09-01T13:58:38.115Z,33.45
2022-09-01T13:59:41.936Z,33.38
2022-09-01T14:00:47.484Z,33.36
2022-09-01T14:01:49.622Z,33.39
2022-09-01T14:02:54.171Z,33.39
2022-09-01T14:04:00.186Z,33.37
2022-09-01T14:05:02.344Z,33.35
2022-09-01T14:06:04.048Z,33.32
2022-09-01T14:07:06.547Z,33.22
2022-09-01T14:08:10.290Z,33.27
2022-09-01T14:09:17.351Z,33.28
2022-09-01T14:10:20.740Z,33.28
2022-09-01T14:11:22.694Z,33.21
2022-09-01T14:12:24.726Z,33.14
2022-09-01T14:13:28.323Z,33.24
2022-09-01T14:15:53.624Z,33.17
2022-09-01T14:16:55.399Z,33.18
2022-09-01T14:18:00.536Z,33.10
2022-09-01T14:19:02.252Z,33.10
2022-09-01T14:20:11.675Z,33.12
2022-09-01T14:21:15.947Z,33.08
2022-09-01T14:22:17.779Z,33.18
2022-09-01T14:23:20.401Z,33.20
2022-09-01T14:24:22.338Z,33.24
2022-09-01T14:25:24.820Z,33.30
2022-09-01T14:26:27.193Z,33.28
2022-09-01T14:27:29.881Z,33.29
2022-09-01T14:28:31.640Z,33.22
2022-09-01T14:29:33.511Z,33.26
2022-09-01T14:30:35.391Z,33.08
2022-09-01T14:31:37.940Z,32.98
2022-09-01T14:32:40.373Z,33.05
2022-09-01T14:33:43.732Z,33.04
2022-09-01T14:34:45.416Z,32.97
2022-09-01T14:35:48.448Z,32.86
2022-09-01T14:36:52.269Z,32.94
2022-09-01T14:37:54.799Z,32.88
2022-09-01T14:38:56.634Z,32.80
2022-09-01T14:39:58.523Z,32.79
2022-09-01T14:41:02.255Z,32.86
2022-09-01T14:42:06.925Z,32.85
2022-09-01T14:43:14.494Z,32.81
2022-09-01T14:44:16.430Z,32.82
2022-09-01T14:45:21.163Z,32.78
2022-09-01T14:46:23.736Z,32.57
2022-09-01T14:47:25.785Z,32.14